sensor_id;sensor_type;location;lat;lon;timestamp;P1;durP1;ratioP1;P2;durP2;ratioP2
33254;SDS011;19623;52.482;9.762;2023-03-11T00:00:24;25.55;;;12.15;;
33254;SDS011;19623;52.482;9.762;2023-03-11T00:02:52;29.00;;;14.30;;
33254;SDS011;19623;52.482;9.762;2023-03-11T00:05:20;28.92;;;13.82;;
33254;SDS011;19623;52.482;9.762;2023-03-11T00:07:47;21.60;;;12.20;;
33254;SDS011;19623;52.482;9.762;2023-03-11T00:10:14;27.52;;;14.85;;
33254;SDS011;19623;52.482;9.762;2023-03-11T00:12:41;26.40;;;13.70;;
33254;SDS011;19623;52.482;9.762;2023-03-11T00:15:07;24.70;;;13.77;;
33254;SDS011;19623;52.482;9.762;2023-03-11T00:17:33;30.48;;;15.65;;
33254;SDS011;19623;52.482;9.762;2023-03-11T00:19:59;28.88;;;14.68;;
33254;SDS011;19623;52.482;9.762;2023-03-11T00:22:24;31.20;;;15.38;;
33254;SDS011;19623;52.482;9.762;2023-03-11T00:24:50;27.08;;;14.77;;
33254;SDS011;19623;52.482;9.762;2023-03-11T00:27:15;29.40;;;15.15;;
33254;SDS011;19623;52.482;9.762;2023-03-11T00:29:41;30.42;;;14.25;;
33254;SDS011;19623;52.482;9.762;2023-03-11T00:32:07;30.02;;;16.23;;
33254;SDS011;19623;52.482;9.762;2023-03-11T00:34:32;29.85;;;14.85;;
33254;SDS011;19623;52.482;9.762;2023-03-11T00:36:58;28.63;;;13.10;;
33254;SDS011;19623;52.482;9.762;2023-03-11T00:39:23;24.65;;;13.02;;
33254;SDS011;19623;52.482;9.762;2023-03-11T00:41:49;28.15;;;14.30;;
33254;SDS011;19623;52.482;9.762;2023-03-11T00:44:15;24.63;;;12.80;;
33254;SDS011;19623;52.482;9.762;2023-03-11T00:46:41;25.48;;;13.40;;
33254;SDS011;19623;52.482;9.762;2023-03-11T00:49:07;22.65;;;11.80;;
33254;SDS011;19623;52.482;9.762;2023-03-11T00:51:32;26.23;;;12.20;;
33254;SDS011;19623;52.482;9.762;2023-03-11T00:53:58;26.05;;;13.38;;
33254;SDS011;19623;52.482;9.762;2023-03-11T00:56:25;22.80;;;12.15;;
33254;SDS011;19623;52.482;9.762;2023-03-11T00:58:50;23.77;;;11.73;;
33254;SDS011;19623;52.482;9.762;2023-03-11T01:01:17;22.42;;;11.70;;
33254;SDS011;19623;52.482;9.762;2023-03-11T01:03:44;24.10;;;11.32;;
33254;SDS011;19623;52.482;9.762;2023-03-11T01:06:09;18.77;;;10.35;;
33254;SDS011;19623;52.482;9.762;2023-03-11T01:08:36;19.83;;;10.88;;
33254;SDS011;19623;52.482;9.762;2023-03-11T01:11:02;22.67;;;10.98;;
33254;SDS011;19623;52.482;9.762;2023-03-11T01:13:28;17.85;;;9.07;;
33254;SDS011;19623;52.482;9.762;2023-03-11T01:15:55;19.95;;;9.63;;
33254;SDS011;19623;52.482;9.762;2023-03-11T01:18:21;17.92;;;9.18;;
33254;SDS011;19623;52.482;9.762;2023-03-11T01:20:47;17.95;;;9.38;;
33254;SDS011;19623;52.482;9.762;2023-03-11T01:23:14;16.92;;;8.13;;
33254;SDS011;19623;52.482;9.762;2023-03-11T01:25:40;14.55;;;7.88;;
33254;SDS011;19623;52.482;9.762;2023-03-11T01:28:06;12.68;;;6.75;;
33254;SDS011;19623;52.482;9.762;2023-03-11T01:30:33;14.52;;;8.20;;
33254;SDS011;19623;52.482;9.762;2023-03-11T01:33:00;14.02;;;7.70;;
33254;SDS011;19623;52.482;9.762;2023-03-11T01:35:27;13.13;;;7.78;;
33254;SDS011;19623;52.482;9.762;2023-03-11T01:37:54;16.90;;;7.75;;
33254;SDS011;19623;52.482;9.762;2023-03-11T01:40:23;11.43;;;6.53;;
33254;SDS011;19623;52.482;9.762;2023-03-11T01:42:55;15.98;;;6.32;;
33254;SDS011;19623;52.482;9.762;2023-03-11T01:48:14;8.50;;;5.00;;
33254;SDS011;19623;52.482;9.762;2023-03-11T01:50:42;10.20;;;4.85;;
33254;SDS011;19623;52.482;9.762;2023-03-11T01:53:10;10.30;;;5.50;;
33254;SDS011;19623;52.482;9.762;2023-03-11T01:55:37;12.05;;;5.35;;
33254;SDS011;19623;52.482;9.762;2023-03-11T01:58:05;9.93;;;5.80;;
33254;SDS011;19623;52.482;9.762;2023-03-11T02:00:34;9.80;;;5.07;;
33254;SDS011;19623;52.482;9.762;2023-03-11T02:03:05;11.60;;;6.38;;
33254;SDS011;19623;52.482;9.762;2023-03-11T02:05:35;11.73;;;6.28;;
33254;SDS011;19623;52.482;9.762;2023-03-11T02:08:01;13.57;;;6.47;;
33254;SDS011;19623;52.482;9.762;2023-03-11T02:10:27;14.90;;;6.53;;
33254;SDS011;19623;52.482;9.762;2023-03-11T02:12:54;12.98;;;6.15;;
33254;SDS011;19623;52.482;9.762;2023-03-11T02:15:20;9.75;;;5.13;;
33254;SDS011;19623;52.482;9.762;2023-03-11T02:17:46;12.50;;;5.15;;
33254;SDS011;19623;52.482;9.762;2023-03-11T02:23:20;10.23;;;5.45;;
33254;SDS011;19623;52.482;9.762;2023-03-11T02:25:51;17.38;;;5.97;;
33254;SDS011;19623;52.482;9.762;2023-03-11T02:28:29;7.23;;;4.40;;
33254;SDS011;19623;52.482;9.762;2023-03-11T02:30:57;8.80;;;4.85;;
33254;SDS011;19623;52.482;9.762;2023-03-11T02:33:27;12.05;;;5.82;;
33254;SDS011;19623;52.482;9.762;2023-03-11T02:35:56;10.32;;;5.18;;
33254;SDS011;19623;52.482;9.762;2023-03-11T02:38:21;11.73;;;5.53;;
33254;SDS011;19623;52.482;9.762;2023-03-11T02:40:49;13.13;;;5.55;;
33254;SDS011;19623;52.482;9.762;2023-03-11T02:43:25;9.48;;;4.88;;
33254;SDS011;19623;52.482;9.762;2023-03-11T02:46:09;11.77;;;5.43;;
33254;SDS011;19623;52.482;9.762;2023-03-11T02:48:37;9.23;;;5.22;;
33254;SDS011;19623;52.482;9.762;2023-03-11T02:51:03;13.20;;;4.97;;
33254;SDS011;19623;52.482;9.762;2023-03-11T02:53:31;9.55;;;4.45;;
33254;SDS011;19623;52.482;9.762;2023-03-11T02:56:01;9.65;;;4.70;;
33254;SDS011;19623;52.482;9.762;2023-03-11T02:58:26;8.57;;;5.20;;
33254;SDS011;19623;52.482;9.762;2023-03-11T03:00:52;9.15;;;5.05;;
33254;SDS011;19623;52.482;9.762;2023-03-11T03:03:18;7.32;;;4.07;;
33254;SDS011;19623;52.482;9.762;2023-03-11T03:05:43;10.68;;;4.82;;
33254;SDS011;19623;52.482;9.762;2023-03-11T03:08:09;11.82;;;4.55;;
33254;SDS011;19623;52.482;9.762;2023-03-11T03:10:35;9.32;;;5.30;;
33254;SDS011;19623;52.482;9.762;2023-03-11T03:13:01;9.15;;;5.15;;
33254;SDS011;19623;52.482;9.762;2023-03-11T03:15:27;10.20;;;4.85;;
33254;SDS011;19623;52.482;9.762;2023-03-11T03:17:52;11.77;;;4.75;;
33254;SDS011;19623;52.482;9.762;2023-03-11T03:20:18;10.98;;;4.57;;
33254;SDS011;19623;52.482;9.762;2023-03-11T03:22:46;9.45;;;4.65;;
33254;SDS011;19623;52.482;9.762;2023-03-11T03:25:13;12.45;;;5.00;;
33254;SDS011;19623;52.482;9.762;2023-03-11T03:27:39;9.68;;;4.43;;
33254;SDS011;19623;52.482;9.762;2023-03-11T03:30:05;11.25;;;4.72;;
33254;SDS011;19623;52.482;9.762;2023-03-11T03:32:32;8.80;;;4.40;;
33254;SDS011;19623;52.482;9.762;2023-03-11T03:34:58;11.82;;;4.43;;
33254;SDS011;19623;52.482;9.762;2023-03-11T03:37:25;11.18;;;4.22;;
33254;SDS011;19623;52.482;9.762;2023-03-11T03:39:52;8.95;;;3.97;;
33254;SDS011;19623;52.482;9.762;2023-03-11T03:42:17;9.90;;;4.00;;
33254;SDS011;19623;52.482;9.762;2023-03-11T03:44:43;9.80;;;4.05;;
33254;SDS011;19623;52.482;9.762;2023-03-11T03:47:09;10.20;;;3.47;;
33254;SDS011;19623;52.482;9.762;2023-03-11T03:49:35;10.07;;;4.40;;
33254;SDS011;19623;52.482;9.762;2023-03-11T03:52:03;13.05;;;3.97;;
33254;SDS011;19623;52.482;9.762;2023-03-11T03:54:29;6.65;;;3.33;;
33254;SDS011;19623;52.482;9.762;2023-03-11T03:56:56;13.43;;;4.57;;
33254;SDS011;19623;52.482;9.762;2023-03-11T03:59:22;7.28;;;4.07;;
33254;SDS011;19623;52.482;9.762;2023-03-11T04:01:47;13.95;;;4.30;;
33254;SDS011;19623;52.482;9.762;2023-03-11T04:04:13;13.80;;;4.88;;
33254;SDS011;19623;52.482;9.762;2023-03-11T04:06:38;8.63;;;4.45;;
33254;SDS011;19623;52.482;9.762;2023-03-11T04:09:04;16.05;;;4.53;;
33254;SDS011;19623;52.482;9.762;2023-03-11T04:11:30;15.95;;;4.65;;
33254;SDS011;19623;52.482;9.762;2023-03-11T04:13:56;15.35;;;4.72;;
33254;SDS011;19623;52.482;9.762;2023-03-11T04:16:22;12.52;;;4.55;;
33254;SDS011;19623;52.482;9.762;2023-03-11T04:18:48;9.48;;;4.30;;
33254;SDS011;19623;52.482;9.762;2023-03-11T04:21:14;11.48;;;4.55;;
33254;SDS011;19623;52.482;9.762;2023-03-11T04:23:40;14.82;;;4.60;;
33254;SDS011;19623;52.482;9.762;2023-03-11T04:26:05;11.93;;;4.70;;
33254;SDS011;19623;52.482;9.762;2023-03-11T04:28:31;11.30;;;4.07;;
33254;SDS011;19623;52.482;9.762;2023-03-11T04:30:57;14.30;;;3.97;;
33254;SDS011;19623;52.482;9.762;2023-03-11T04:33:22;8.52;;;3.83;;
33254;SDS011;19623;52.482;9.762;2023-03-11T04:35:48;10.75;;;3.80;;
33254;SDS011;19623;52.482;9.762;2023-03-11T04:38:14;9.15;;;3.72;;
33254;SDS011;19623;52.482;9.762;2023-03-11T04:40:40;8.13;;;3.13;;
33254;SDS011;19623;52.482;9.762;2023-03-11T04:43:05;6.28;;;3.08;;
33254;SDS011;19623;52.482;9.762;2023-03-11T04:45:31;5.65;;;2.90;;
33254;SDS011;19623;52.482;9.762;2023-03-11T04:47:57;7.75;;;3.15;;
33254;SDS011;19623;52.482;9.762;2023-03-11T04:50:22;7.22;;;3.00;;
33254;SDS011;19623;52.482;9.762;2023-03-11T04:52:48;10.18;;;3.40;;
33254;SDS011;19623;52.482;9.762;2023-03-11T04:55:14;7.97;;;2.50;;
33254;SDS011;19623;52.482;9.762;2023-03-11T04:57:40;7.60;;;3.25;;
33254;SDS011;19623;52.482;9.762;2023-03-11T05:00:08;7.43;;;2.45;;
33254;SDS011;19623;52.482;9.762;2023-03-11T05:02:36;6.00;;;2.30;;
33254;SDS011;19623;52.482;9.762;2023-03-11T05:05:02;3.67;;;1.90;;
33254;SDS011;19623;52.482;9.762;2023-03-11T05:07:28;8.60;;;2.20;;
33254;SDS011;19623;52.482;9.762;2023-03-11T05:09:54;9.52;;;2.00;;
33254;SDS011;19623;52.482;9.762;2023-03-11T05:12:20;8.20;;;1.70;;
33254;SDS011;19623;52.482;9.762;2023-03-11T05:14:45;5.63;;;1.65;;
33254;SDS011;19623;52.482;9.762;2023-03-11T05:17:11;6.65;;;2.45;;
33254;SDS011;19623;52.482;9.762;2023-03-11T05:19:38;4.82;;;2.20;;
33254;SDS011;19623;52.482;9.762;2023-03-11T05:22:05;4.18;;;1.90;;
33254;SDS011;19623;52.482;9.762;2023-03-11T05:24:30;4.03;;;2.00;;
33254;SDS011;19623;52.482;9.762;2023-03-11T05:26:56;7.00;;;2.40;;
33254;SDS011;19623;52.482;9.762;2023-03-11T05:29:23;8.40;;;2.58;;
33254;SDS011;19623;52.482;9.762;2023-03-11T05:31:49;7.07;;;2.38;;
33254;SDS011;19623;52.482;9.762;2023-03-11T05:34:15;7.10;;;2.42;;
33254;SDS011;19623;52.482;9.762;2023-03-11T05:36:41;10.40;;;2.47;;
33254;SDS011;19623;52.482;9.762;2023-03-11T05:39:07;5.28;;;2.28;;
33254;SDS011;19623;52.482;9.762;2023-03-11T05:41:33;5.20;;;2.20;;
33254;SDS011;19623;52.482;9.762;2023-03-11T05:43:58;2.63;;;1.67;;
33254;SDS011;19623;52.482;9.762;2023-03-11T05:46:24;8.57;;;2.20;;
33254;SDS011;19623;52.482;9.762;2023-03-11T05:48:50;3.90;;;1.80;;
33254;SDS011;19623;52.482;9.762;2023-03-11T05:51:15;10.93;;;1.75;;
33254;SDS011;19623;52.482;9.762;2023-03-11T05:53:42;5.20;;;1.73;;
33254;SDS011;19623;52.482;9.762;2023-03-11T05:56:15;6.00;;;1.90;;
33254;SDS011;19623;52.482;9.762;2023-03-11T05:58:42;5.90;;;1.80;;
33254;SDS011;19623;52.482;9.762;2023-03-11T06:01:12;9.15;;;1.77;;
33254;SDS011;19623;52.482;9.762;2023-03-11T06:03:39;3.60;;;1.67;;
33254;SDS011;19623;52.482;9.762;2023-03-11T06:06:06;10.30;;;1.52;;
33254;SDS011;19623;52.482;9.762;2023-03-11T06:08:33;3.83;;;2.08;;
33254;SDS011;19623;52.482;9.762;2023-03-11T06:11:09;9.88;;;1.55;;
33254;SDS011;19623;52.482;9.762;2023-03-11T06:13:35;5.82;;;1.65;;
33254;SDS011;19623;52.482;9.762;2023-03-11T06:16:01;14.18;;;2.05;;
33254;SDS011;19623;52.482;9.762;2023-03-11T06:18:28;4.93;;;1.50;;
33254;SDS011;19623;52.482;9.762;2023-03-11T06:20:56;8.75;;;1.70;;
33254;SDS011;19623;52.482;9.762;2023-03-11T06:23:23;8.57;;;1.52;;
33254;SDS011;19623;52.482;9.762;2023-03-11T06:25:56;5.80;;;1.38;;
33254;SDS011;19623;52.482;9.762;2023-03-11T06:28:28;10.32;;;1.75;;
33254;SDS011;19623;52.482;9.762;2023-03-11T06:30:54;2.35;;;1.30;;
33254;SDS011;19623;52.482;9.762;2023-03-11T06:33:23;8.13;;;1.40;;
33254;SDS011;19623;52.482;9.762;2023-03-11T06:35:55;7.60;;;1.38;;
33254;SDS011;19623;52.482;9.762;2023-03-11T06:38:24;11.73;;;1.77;;
33254;SDS011;19623;52.482;9.762;2023-03-11T06:40:51;5.55;;;1.58;;
33254;SDS011;19623;52.482;9.762;2023-03-11T06:43:16;4.78;;;1.67;;
33254;SDS011;19623;52.482;9.762;2023-03-11T06:45:43;3.08;;;1.38;;
33254;SDS011;19623;52.482;9.762;2023-03-11T06:48:08;7.07;;;1.60;;
33254;SDS011;19623;52.482;9.762;2023-03-11T06:50:34;4.00;;;2.00;;
33254;SDS011;19623;52.482;9.762;2023-03-11T06:53:00;6.53;;;1.33;;
33254;SDS011;19623;52.482;9.762;2023-03-11T06:55:27;6.22;;;1.63;;
33254;SDS011;19623;52.482;9.762;2023-03-11T06:57:53;4.20;;;1.27;;
33254;SDS011;19623;52.482;9.762;2023-03-11T07:00:18;4.53;;;1.70;;
33254;SDS011;19623;52.482;9.762;2023-03-11T07:02:44;10.20;;;1.65;;
33254;SDS011;19623;52.482;9.762;2023-03-11T07:05:09;4.75;;;1.88;;
33254;SDS011;19623;52.482;9.762;2023-03-11T07:07:36;5.25;;;1.52;;
33254;SDS011;19623;52.482;9.762;2023-03-11T07:10:02;9.15;;;2.35;;
33254;SDS011;19623;52.482;9.762;2023-03-11T07:12:28;4.82;;;1.60;;
33254;SDS011;19623;52.482;9.762;2023-03-11T07:14:55;5.95;;;1.77;;
33254;SDS011;19623;52.482;9.762;2023-03-11T07:17:21;7.40;;;1.55;;
33254;SDS011;19623;52.482;9.762;2023-03-11T07:19:47;6.07;;;1.42;;
33254;SDS011;19623;52.482;9.762;2023-03-11T07:22:12;11.38;;;1.60;;
33254;SDS011;19623;52.482;9.762;2023-03-11T07:24:38;4.60;;;1.52;;
33254;SDS011;19623;52.482;9.762;2023-03-11T07:27:04;5.75;;;1.65;;
33254;SDS011;19623;52.482;9.762;2023-03-11T07:29:30;4.45;;;1.60;;
33254;SDS011;19623;52.482;9.762;2023-03-11T07:31:56;6.30;;;1.48;;
33254;SDS011;19623;52.482;9.762;2023-03-11T07:34:21;5.90;;;1.92;;
33254;SDS011;19623;52.482;9.762;2023-03-11T07:36:47;6.07;;;1.20;;
33254;SDS011;19623;52.482;9.762;2023-03-11T07:39:13;7.75;;;1.60;;
33254;SDS011;19623;52.482;9.762;2023-03-11T07:41:40;4.60;;;1.42;;
33254;SDS011;19623;52.482;9.762;2023-03-11T07:44:06;7.03;;;1.10;;
33254;SDS011;19623;52.482;9.762;2023-03-11T07:46:32;6.65;;;1.40;;
33254;SDS011;19623;52.482;9.762;2023-03-11T07:48:59;13.13;;;1.92;;
33254;SDS011;19623;52.482;9.762;2023-03-11T07:51:27;8.05;;;1.60;;
33254;SDS011;19623;52.482;9.762;2023-03-11T07:53:55;4.10;;;1.52;;
33254;SDS011;19623;52.482;9.762;2023-03-11T07:56:24;7.60;;;1.40;;
33254;SDS011;19623;52.482;9.762;2023-03-11T07:58:52;5.10;;;1.27;;
33254;SDS011;19623;52.482;9.762;2023-03-11T08:01:18;5.18;;;1.25;;
33254;SDS011;19623;52.482;9.762;2023-03-11T08:03:50;3.50;;;1.50;;
33254;SDS011;19623;52.482;9.762;2023-03-11T08:06:25;2.67;;;1.58;;
33254;SDS011;19623;52.482;9.762;2023-03-11T08:08:53;5.88;;;1.65;;
33254;SDS011;19623;52.482;9.762;2023-03-11T08:11:19;9.05;;;1.70;;
33254;SDS011;19623;52.482;9.762;2023-03-11T08:13:45;8.05;;;1.60;;
33254;SDS011;19623;52.482;9.762;2023-03-11T08:16:12;5.55;;;2.00;;
33254;SDS011;19623;52.482;9.762;2023-03-11T08:18:40;12.20;;;1.40;;
33254;SDS011;19623;52.482;9.762;2023-03-11T08:21:06;3.38;;;1.40;;
33254;SDS011;19623;52.482;9.762;2023-03-11T08:23:33;6.10;;;1.90;;
33254;SDS011;19623;52.482;9.762;2023-03-11T08:26:19;10.85;;;1.77;;
33254;SDS011;19623;52.482;9.762;2023-03-11T08:28:48;6.03;;;1.65;;
33254;SDS011;19623;52.482;9.762;2023-03-11T08:34:08;6.65;;;1.60;;
33254;SDS011;19623;52.482;9.762;2023-03-11T08:36:34;4.93;;;1.60;;
33254;SDS011;19623;52.482;9.762;2023-03-11T08:39:00;9.13;;;1.85;;
33254;SDS011;19623;52.482;9.762;2023-03-11T08:41:26;5.18;;;1.63;;
33254;SDS011;19623;52.482;9.762;2023-03-11T08:43:52;5.28;;;1.60;;
33254;SDS011;19623;52.482;9.762;2023-03-11T08:48:52;4.18;;;1.40;;
33254;SDS011;19623;52.482;9.762;2023-03-11T08:51:18;12.57;;;1.60;;
33254;SDS011;19623;52.482;9.762;2023-03-11T08:53:44;7.35;;;1.63;;
33254;SDS011;19623;52.482;9.762;2023-03-11T08:56:11;4.90;;;1.70;;
33254;SDS011;19623;52.482;9.762;2023-03-11T08:58:37;6.25;;;1.75;;
33254;SDS011;19623;52.482;9.762;2023-03-11T09:01:03;3.60;;;1.60;;
33254;SDS011;19623;52.482;9.762;2023-03-11T09:03:30;5.25;;;1.60;;
33254;SDS011;19623;52.482;9.762;2023-03-11T09:05:57;6.22;;;1.98;;
33254;SDS011;19623;52.482;9.762;2023-03-11T09:08:24;3.55;;;1.75;;
33254;SDS011;19623;52.482;9.762;2023-03-11T09:10:50;3.60;;;1.65;;
33254;SDS011;19623;52.482;9.762;2023-03-11T09:13:16;3.95;;;1.70;;
33254;SDS011;19623;52.482;9.762;2023-03-11T09:15:41;7.32;;;1.70;;
33254;SDS011;19623;52.482;9.762;2023-03-11T09:18:10;3.72;;;1.38;;
33254;SDS011;19623;52.482;9.762;2023-03-11T09:20:40;6.22;;;1.70;;
33254;SDS011;19623;52.482;9.762;2023-03-11T09:23:06;3.58;;;1.73;;
33254;SDS011;19623;52.482;9.762;2023-03-11T09:25:32;4.85;;;1.80;;
33254;SDS011;19623;52.482;9.762;2023-03-11T09:27:58;5.75;;;1.75;;
33254;SDS011;19623;52.482;9.762;2023-03-11T09:30:24;7.20;;;1.80;;
33254;SDS011;19623;52.482;9.762;2023-03-11T09:32:49;9.43;;;1.88;;
33254;SDS011;19623;52.482;9.762;2023-03-11T09:35:15;4.25;;;1.15;;
33254;SDS011;19623;52.482;9.762;2023-03-11T09:37:41;6.65;;;1.58;;
33254;SDS011;19623;52.482;9.762;2023-03-11T09:40:06;7.70;;;1.80;;
33254;SDS011;19623;52.482;9.762;2023-03-11T09:45:20;7.43;;;1.83;;
33254;SDS011;19623;52.482;9.762;2023-03-11T09:50:47;8.63;;;1.67;;
33254;SDS011;19623;52.482;9.762;2023-03-11T09:53:21;6.38;;;1.63;;
33254;SDS011;19623;52.482;9.762;2023-03-11T09:55:51;11.85;;;1.65;;
33254;SDS011;19623;52.482;9.762;2023-03-11T09:58:33;4.93;;;1.67;;
33254;SDS011;19623;52.482;9.762;2023-03-11T10:03:49;3.35;;;1.40;;
33254;SDS011;19623;52.482;9.762;2023-03-11T10:06:25;4.88;;;1.67;;
33254;SDS011;19623;52.482;9.762;2023-03-11T10:23:18;4.68;;;1.48;;
33254;SDS011;19623;52.482;9.762;2023-03-11T10:25:57;7.10;;;1.70;;
33254;SDS011;19623;52.482;9.762;2023-03-11T10:28:58;4.57;;;1.75;;
33254;SDS011;19623;52.482;9.762;2023-03-11T10:31:27;8.07;;;1.80;;
33254;SDS011;19623;52.482;9.762;2023-03-11T10:34:03;2.83;;;1.33;;
33254;SDS011;19623;52.482;9.762;2023-03-11T10:36:53;5.95;;;2.05;;
33254;SDS011;19623;52.482;9.762;2023-03-11T10:39:28;5.35;;;1.60;;
33254;SDS011;19623;52.482;9.762;2023-03-11T10:41:56;7.13;;;1.67;;
33254;SDS011;19623;52.482;9.762;2023-03-11T10:44:27;4.20;;;1.60;;
33254;SDS011;19623;52.482;9.762;2023-03-11T10:46:58;3.70;;;1.63;;
33254;SDS011;19623;52.482;9.762;2023-03-11T10:49:24;5.82;;;2.05;;
33254;SDS011;19623;52.482;9.762;2023-03-11T10:51:50;4.18;;;1.45;;
33254;SDS011;19623;52.482;9.762;2023-03-11T10:54:22;6.38;;;4.05;;
33254;SDS011;19623;52.482;9.762;2023-03-11T10:57:02;3.75;;;1.40;;
33254;SDS011;19623;52.482;9.762;2023-03-11T10:59:56;3.78;;;1.50;;
33254;SDS011;19623;52.482;9.762;2023-03-11T11:02:30;7.22;;;1.70;;
33254;SDS011;19623;52.482;9.762;2023-03-11T11:05:39;4.65;;;1.63;;
33254;SDS011;19623;52.482;9.762;2023-03-11T11:08:04;4.55;;;1.60;;
33254;SDS011;19623;52.482;9.762;2023-03-11T11:10:30;1.60;;;1.15;;
33254;SDS011;19623;52.482;9.762;2023-03-11T11:12:57;8.90;;;2.05;;
33254;SDS011;19623;52.482;9.762;2023-03-11T11:15:51;8.02;;;1.67;;
33254;SDS011;19623;52.482;9.762;2023-03-11T11:21:00;7.05;;;1.70;;
33254;SDS011;19623;52.482;9.762;2023-03-11T11:26:03;2.70;;;1.17;;
33254;SDS011;19623;52.482;9.762;2023-03-11T11:28:31;4.95;;;1.30;;
33254;SDS011;19623;52.482;9.762;2023-03-11T11:33:32;5.80;;;2.03;;
33254;SDS011;19623;52.482;9.762;2023-03-11T11:36:13;8.82;;;1.52;;
33254;SDS011;19623;52.482;9.762;2023-03-11T11:38:40;7.40;;;1.27;;
33254;SDS011;19623;52.482;9.762;2023-03-11T11:41:07;7.15;;;1.90;;
33254;SDS011;19623;52.482;9.762;2023-03-11T11:43:48;7.80;;;1.60;;
33254;SDS011;19623;52.482;9.762;2023-03-11T11:51:37;5.93;;;1.55;;
33254;SDS011;19623;52.482;9.762;2023-03-11T11:57:00;4.07;;;1.73;;
33254;SDS011;19623;52.482;9.762;2023-03-11T11:59:32;2.92;;;1.40;;
33254;SDS011;19623;52.482;9.762;2023-03-11T12:04:37;7.55;;;1.70;;
33254;SDS011;19623;52.482;9.762;2023-03-11T12:12:32;6.60;;;1.70;;
33254;SDS011;19623;52.482;9.762;2023-03-11T12:15:26;6.47;;;1.90;;
33254;SDS011;19623;52.482;9.762;2023-03-11T12:17:58;6.60;;;1.58;;
33254;SDS011;19623;52.482;9.762;2023-03-11T12:21:11;4.60;;;1.70;;
33254;SDS011;19623;52.482;9.762;2023-03-11T12:26:25;7.68;;;1.80;;
33254;SDS011;19623;52.482;9.762;2023-03-11T12:28:59;4.18;;;1.67;;
33254;SDS011;19623;52.482;9.762;2023-03-11T12:31:40;2.53;;;1.35;;
33254;SDS011;19623;52.482;9.762;2023-03-11T12:34:08;7.70;;;1.95;;
33254;SDS011;19623;52.482;9.762;2023-03-11T12:36:40;9.45;;;1.75;;
33254;SDS011;19623;52.482;9.762;2023-03-11T12:39:18;6.85;;;1.52;;
33254;SDS011;19623;52.482;9.762;2023-03-11T12:44:36;3.58;;;1.48;;
33254;SDS011;19623;52.482;9.762;2023-03-11T12:49:35;5.10;;;1.40;;
33254;SDS011;19623;52.482;9.762;2023-03-11T12:54:38;3.70;;;1.50;;
33254;SDS011;19623;52.482;9.762;2023-03-11T13:03:26;7.13;;;1.70;;
33254;SDS011;19623;52.482;9.762;2023-03-11T13:08:52;4.22;;;1.58;;
33254;SDS011;19623;52.482;9.762;2023-03-11T13:11:42;5.40;;;1.63;;
33254;SDS011;19623;52.482;9.762;2023-03-11T13:16:40;4.72;;;1.33;;
33254;SDS011;19623;52.482;9.762;2023-03-11T13:21:56;4.78;;;1.30;;
33254;SDS011;19623;52.482;9.762;2023-03-11T13:29:38;2.53;;;1.50;;
33254;SDS011;19623;52.482;9.762;2023-03-11T13:32:30;4.57;;;1.52;;
33254;SDS011;19623;52.482;9.762;2023-03-11T13:38:19;4.63;;;1.40;;
33254;SDS011;19623;52.482;9.762;2023-03-11T13:41:26;4.30;;;1.40;;
33254;SDS011;19623;52.482;9.762;2023-03-11T13:43:56;5.80;;;1.40;;
33254;SDS011;19623;52.482;9.762;2023-03-11T13:46:32;5.53;;;1.33;;
33254;SDS011;19623;52.482;9.762;2023-03-11T13:49:04;5.43;;;1.45;;
33254;SDS011;19623;52.482;9.762;2023-03-11T13:51:40;8.60;;;1.40;;
33254;SDS011;19623;52.482;9.762;2023-03-11T13:54:17;11.95;;;1.60;;
33254;SDS011;19623;52.482;9.762;2023-03-11T13:56:56;7.82;;;1.35;;
33254;SDS011;19623;52.482;9.762;2023-03-11T13:59:30;3.05;;;1.25;;
33254;SDS011;19623;52.482;9.762;2023-03-11T14:01:59;4.32;;;1.30;;
33254;SDS011;19623;52.482;9.762;2023-03-11T14:04:32;3.53;;;1.00;;
33254;SDS011;19623;52.482;9.762;2023-03-11T14:07:10;4.57;;;1.33;;
33254;SDS011;19623;52.482;9.762;2023-03-11T14:12:48;6.97;;;1.42;;
33254;SDS011;19623;52.482;9.762;2023-03-11T14:15:15;4.87;;;1.50;;
33254;SDS011;19623;52.482;9.762;2023-03-11T14:17:45;4.07;;;1.20;;
33254;SDS011;19623;52.482;9.762;2023-03-11T14:22:50;3.65;;;1.25;;
33254;SDS011;19623;52.482;9.762;2023-03-11T14:25:24;10.65;;;1.75;;
33254;SDS011;19623;52.482;9.762;2023-03-11T14:27:53;6.13;;;1.10;;
33254;SDS011;19623;52.482;9.762;2023-03-11T14:30:26;6.88;;;1.55;;
33254;SDS011;19623;52.482;9.762;2023-03-11T14:33:04;7.82;;;1.33;;
33254;SDS011;19623;52.482;9.762;2023-03-11T14:35:48;3.05;;;1.38;;
33254;SDS011;19623;52.482;9.762;2023-03-11T14:38:40;6.78;;;1.20;;
33254;SDS011;19623;52.482;9.762;2023-03-11T14:41:09;3.75;;;1.20;;
33254;SDS011;19623;52.482;9.762;2023-03-11T14:43:38;6.55;;;1.30;;
33254;SDS011;19623;52.482;9.762;2023-03-11T14:46:09;1.25;;;1.05;;
33254;SDS011;19623;52.482;9.762;2023-03-11T14:48:43;5.88;;;1.10;;
33254;SDS011;19623;52.482;9.762;2023-03-11T14:51:20;5.45;;;1.05;;
33254;SDS011;19623;52.482;9.762;2023-03-11T14:56:23;7.40;;;1.45;;
33254;SDS011;19623;52.482;9.762;2023-03-11T14:58:59;4.05;;;1.30;;
33254;SDS011;19623;52.482;9.762;2023-03-11T15:01:38;5.50;;;1.40;;
33254;SDS011;19623;52.482;9.762;2023-03-11T15:04:12;4.32;;;1.20;;
33254;SDS011;19623;52.482;9.762;2023-03-11T15:07:02;5.10;;;1.33;;
33254;SDS011;19623;52.482;9.762;2023-03-11T15:09:29;8.82;;;1.80;;
33254;SDS011;19623;52.482;9.762;2023-03-11T15:11:56;5.63;;;1.40;;
33254;SDS011;19623;52.482;9.762;2023-03-11T15:14:28;5.95;;;1.30;;
33254;SDS011;19623;52.482;9.762;2023-03-11T15:19:43;6.05;;;1.33;;
33254;SDS011;19623;52.482;9.762;2023-03-11T15:25:00;8.95;;;1.60;;
33254;SDS011;19623;52.482;9.762;2023-03-11T15:27:33;2.42;;;0.95;;
33254;SDS011;19623;52.482;9.762;2023-03-11T15:30:01;4.55;;;1.15;;
33254;SDS011;19623;52.482;9.762;2023-03-11T15:32:48;2.90;;;1.25;;
33254;SDS011;19623;52.482;9.762;2023-03-11T15:37:44;5.63;;;1.20;;
33254;SDS011;19623;52.482;9.762;2023-03-11T15:40:22;4.35;;;1.30;;
33254;SDS011;19623;52.482;9.762;2023-03-11T15:43:02;6.13;;;1.25;;
33254;SDS011;19623;52.482;9.762;2023-03-11T15:48:10;4.18;;;1.33;;
33254;SDS011;19623;52.482;9.762;2023-03-11T15:50:59;8.77;;;1.25;;
33254;SDS011;19623;52.482;9.762;2023-03-11T15:53:25;5.22;;;1.38;;
33254;SDS011;19623;52.482;9.762;2023-03-11T15:55:52;5.32;;;1.38;;
33254;SDS011;19623;52.482;9.762;2023-03-11T15:58:20;3.42;;;1.60;;
33254;SDS011;19623;52.482;9.762;2023-03-11T16:00:53;4.90;;;1.45;;
33254;SDS011;19623;52.482;9.762;2023-03-11T16:03:20;7.75;;;1.70;;
33254;SDS011;19623;52.482;9.762;2023-03-11T16:05:46;3.63;;;1.50;;
33254;SDS011;19623;52.482;9.762;2023-03-11T16:08:12;4.43;;;1.35;;
33254;SDS011;19623;52.482;9.762;2023-03-11T16:10:38;5.15;;;1.75;;
33254;SDS011;19623;52.482;9.762;2023-03-11T16:13:04;3.92;;;1.40;;
33254;SDS011;19623;52.482;9.762;2023-03-11T16:15:32;8.10;;;1.70;;
33254;SDS011;19623;52.482;9.762;2023-03-11T16:18:00;6.70;;;1.45;;
33254;SDS011;19623;52.482;9.762;2023-03-11T16:20:38;4.70;;;1.33;;
33254;SDS011;19623;52.482;9.762;2023-03-11T16:23:14;7.32;;;1.67;;
33254;SDS011;19623;52.482;9.762;2023-03-11T16:25:46;3.78;;;1.25;;
33254;SDS011;19623;52.482;9.762;2023-03-11T16:28:13;5.88;;;1.42;;
33254;SDS011;19623;52.482;9.762;2023-03-11T16:30:40;3.38;;;1.48;;
33254;SDS011;19623;52.482;9.762;2023-03-11T16:33:06;4.95;;;1.30;;
33254;SDS011;19623;52.482;9.762;2023-03-11T16:35:32;6.22;;;1.50;;
33254;SDS011;19623;52.482;9.762;2023-03-11T16:37:58;2.53;;;1.20;;
33254;SDS011;19623;52.482;9.762;2023-03-11T16:40:25;7.82;;;1.40;;
33254;SDS011;19623;52.482;9.762;2023-03-11T16:42:57;5.22;;;1.38;;
33254;SDS011;19623;52.482;9.762;2023-03-11T16:47:58;9.80;;;1.52;;